SCC: Birmingham: GS practice one times

Pos Num Class Team Time Gap To 1st Speed --- --- ----- ------------------------------ ---------- ------- ------- ------- 1. 42 GS TRG 1:38.588 83.986 2. 87...

Pos Num Class Team                                 Time     Gap  To 1st   Speed
--- --- ----- ------------------------------ ---------- ------- ------- -------
 1.  42 GS    TRG                              1:38.588                  83.986
 2.  87 GS    Marcus Motorsports               1:38.591   0.003   0.003  83.983
 3.  41 GS    TRG                              1:38.836   0.245   0.248  83.775
 4.  25 GS    Fiorano/C-MAX Racing             1:38.842   0.006   0.254  83.770
 5.  96 GS    Turner Motorsport                1:38.982   0.140   0.394  83.652
 6.  97 GS    Turner Motorsport                1:39.199   0.217   0.611  83.469
 7.  99 GS    Automatic Racing                 1:39.213   0.014   0.625  83.457
 8. 154 GS    Jim Click Racing                 1:39.224   0.011   0.636  83.448
 9.  40 GS    TRG                              1:39.347   0.123   0.759  83.344
10.  91 GS    Automatic Racing                 1:39.382   0.035   0.794  83.315
11.   9 GS    Spirit of Daytona Racing         1:39.393   0.011   0.805  83.306
12.  49 GS    Marcus Motorsports               1:39.491   0.098   0.903  83.224
13.  09 GS    Automatic Racing                 1:39.522   0.031   0.934  83.198
14.  55 GS    Hyper Sport                      1:39.601   0.079   1.013  83.132
15.  83 GS    BGB Motorsports                  1:39.606   0.005   1.018  83.128
16.  38 GS    BGB Motorsports                  1:39.779   0.173   1.191  82.983
17.  39 GS    TRG                              1:39.816   0.037   1.228  82.953
18.   3 GS    Blackforest Motorsports          1:40.003   0.187   1.415  82.798
19.   5 GS    Blackforest Motorsports          1:40.024   0.021   1.436  82.780
20.  59 GS    Rehagen Racing                   1:40.343   0.319   1.755  82.517
21.  37 GS    JBS Racing                       1:40.420   0.077   1.832  82.454
22.  90 GS    Automatic Racing                 1:40.437   0.017   1.849  82.440
23.  26 GS    Fiorano/C-MAX Racing             1:40.472   0.035   1.884  82.411
24.  17 GS    Team Centurion                   1:40.497   0.025   1.909  82.391
25. 150 GS    Jim Click Racing                 1:40.517   0.020   1.929  82.374
26.  88 GS    Ranger Sports Racing             1:40.619   0.102   2.031  82.291
27.   4 GS    Blackforest Motorsports          1:40.641   0.022   2.053  82.273
28. 137 GS    JBS Motorsports                  1:40.717   0.076   2.129  82.211
29.   2 GS    Blackforest Motorsports          1:40.720   0.003   2.132  82.208
30.  89 GS    Ranger Sports Racing             1:41.071   0.351   2.483  81.923
31.  79 GS    Kinetic Motorsports              1:41.106   0.035   2.518  81.894
32.  54 GS    Hyper Sport                      1:41.113   0.007   2.525  81.889
33.  28 GS    Fall-Line Motorsports            1:41.367   0.254   2.779  81.683
34.  07 GS    Cardiosport Racing               1:41.401   0.034   2.813  81.656
35. 156 GS    Hyper Sport                      1:41.609   0.208   3.021  81.489
36.  52 GS    Rehagen Racing                   1:42.568   0.959   3.980  80.727
37.  46 GS    Fall-Line Motorsports            1:43.028   0.460   4.440  80.367
38.  11 GS    Southwest Racers Group           1:44.222   1.194   5.634  79.446
39.  10 GS    Spirit of Daytona Racing         1:44.989   0.767   6.401  78.865

Be part of something big

Write a comment
Show comments
About this article
Series Grand-Am
Drivers Jim Click
Teams Kinetic Motorsports , Rehagen Racing , Turner Motorsport , Automatic Racing , Fall-Line Motorsports